Terminal Aerodrome Forecast
Issued by NWS

Home | Current Version | Previous Version | Text Only | Print | Product List | Glossary On
Versions: 1 2 3 4 5 6 7 8 9 10 11 12 13 14 15 16 17 18 19 20 21 22 23 24 25 26 27 28 29 30 31
000
FTUS43 KLSX 010500
TAFUIN
TAF
KUIN 010520Z 0106/0206 07007KT P6SM BKN015 OVC040
      TEMPO 0106/0110 SCT015 BKN035
     FM011500 06007KT P6SM BKN025
     FM020100 07005KT P6SM BKN040=

USA.gov is the U.S. government's official web portal to all federal, state and local government web resources and services.